createdAt,value
2022-08-20T00:01:43.287Z,3.10
2022-08-20T00:04:09.656Z,2.90
2022-08-20T00:06:36.038Z,3.20
2022-08-20T00:09:02.424Z,3.20
2022-08-20T00:11:29.033Z,2.80
2022-08-20T00:13:55.196Z,2.43
2022-08-20T00:16:21.593Z,3.20
2022-08-20T00:18:48.001Z,2.70
2022-08-20T00:21:19.042Z,2.77
2022-08-20T00:23:40.763Z,2.60
2022-08-20T00:26:07.144Z,3.20
2022-08-20T00:28:33.517Z,2.97
2022-08-20T00:30:59.907Z,2.87
2022-08-20T00:33:26.287Z,3.40
2022-08-20T00:35:52.673Z,3.20
2022-08-20T00:38:19.055Z,3.07
2022-08-20T00:40:45.466Z,2.80
2022-08-20T00:43:11.845Z,2.90
2022-08-20T00:45:38.280Z,2.70
2022-08-20T00:48:04.680Z,3.10
2022-08-20T00:50:31.068Z,2.77
2022-08-20T00:52:57.477Z,2.90
2022-08-20T00:55:26.445Z,3.10
2022-08-20T00:58:00.493Z,3.10
2022-08-20T01:00:16.676Z,2.60
2022-08-20T01:02:43.049Z,2.90
2022-08-20T01:05:09.438Z,2.83
2022-08-20T01:07:35.816Z,2.83
2022-08-20T01:10:02.203Z,2.60
2022-08-20T01:12:28.587Z,2.70
2022-08-20T01:14:55.076Z,2.70
2022-08-20T01:17:21.457Z,3.00
2022-08-20T01:19:47.843Z,2.87
2022-08-20T01:22:14.226Z,2.93
2022-08-20T01:24:40.610Z,3.00
2022-08-20T01:27:06.997Z,2.60
2022-08-20T01:29:33.395Z,3.20
2022-08-20T01:31:59.772Z,2.90
2022-08-20T01:34:26.151Z,2.70
2022-08-20T01:36:52.562Z,2.70
2022-08-20T01:39:18.946Z,2.80
2022-08-20T01:41:45.334Z,2.73
2022-08-20T01:44:15.423Z,3.07
2022-08-20T01:46:38.122Z,3.23
2022-08-20T01:49:04.496Z,2.77
2022-08-20T01:51:30.865Z,3.17
2022-08-20T01:53:57.274Z,3.00
2022-08-20T01:56:23.648Z,2.80
2022-08-20T01:58:50.155Z,2.60
2022-08-20T02:01:16.613Z,2.90
2022-08-20T02:03:44.768Z,2.50
2022-08-20T02:06:09.455Z,2.93
2022-08-20T02:08:35.853Z,3.50
2022-08-20T02:11:02.246Z,2.83
2022-08-20T02:13:28.627Z,3.03
2022-08-20T02:15:55.009Z,3.07
2022-08-20T02:18:21.402Z,3.03
2022-08-20T02:20:47.776Z,2.40
2022-08-20T02:23:14.161Z,3.00
2022-08-20T02:25:40.558Z,2.87
2022-08-20T02:28:06.926Z,3.00
2022-08-20T02:30:33.309Z,3.17
2022-08-20T02:32:59.691Z,2.87
2022-08-20T02:35:26.076Z,3.10
2022-08-20T02:37:52.578Z,2.70
2022-08-20T02:40:18.933Z,2.83
2022-08-20T02:42:45.243Z,2.90
2022-08-20T02:45:11.628Z,2.90
2022-08-20T02:47:38.015Z,3.10
2022-08-20T02:50:04.394Z,2.67
2022-08-20T02:52:30.778Z,3.00
2022-08-20T02:54:57.167Z,3.10
2022-08-20T02:57:23.556Z,2.63
2022-08-20T02:59:49.943Z,2.90
2022-08-20T03:02:16.320Z,2.90
2022-08-20T03:04:42.855Z,3.03
2022-08-20T03:07:09.232Z,3.10
2022-08-20T03:09:35.618Z,3.00
2022-08-20T03:12:02.135Z,2.70
2022-08-20T03:14:28.522Z,2.77
2022-08-20T03:16:55.012Z,2.97
2022-08-20T03:19:21.434Z,2.90
2022-08-20T03:21:47.828Z,3.17
2022-08-20T03:24:14.200Z,2.70
2022-08-20T03:26:40.589Z,2.60
2022-08-20T03:29:06.964Z,3.17
2022-08-20T03:31:33.500Z,2.60
2022-08-20T03:33:59.889Z,2.70
2022-08-20T03:36:27.970Z,2.60
2022-08-20T03:38:52.671Z,3.10
2022-08-20T03:41:19.053Z,2.57
2022-08-20T03:43:45.460Z,2.77
2022-08-20T03:46:23.040Z,2.90
2022-08-20T03:48:38.230Z,2.87
2022-08-20T03:51:04.623Z,2.80
2022-08-20T03:53:31.009Z,3.20
2022-08-20T03:56:02.093Z,2.60
2022-08-20T03:58:33.270Z,2.30
2022-08-20T04:00:50.190Z,2.67
2022-08-20T04:03:16.569Z,2.80
2022-08-20T04:05:42.980Z,2.43
2022-08-20T04:08:09.362Z,2.63
2022-08-20T04:10:35.756Z,2.97
2022-08-20T04:13:02.259Z,3.00
2022-08-20T04:15:29.700Z,2.90
2022-08-20T04:17:56.165Z,2.77
2022-08-20T04:20:22.580Z,2.67
2022-08-20T04:22:50.853Z,2.87
2022-08-20T04:25:15.914Z,2.90
2022-08-20T04:27:41.749Z,2.53
2022-08-20T04:30:08.209Z,2.70
2022-08-20T04:32:34.596Z,2.80
2022-08-20T04:35:00.982Z,2.60
2022-08-20T04:37:27.370Z,2.90
2022-08-20T04:39:53.906Z,2.70
2022-08-20T04:42:20.277Z,2.90
2022-08-20T04:44:46.671Z,2.87
2022-08-20T04:47:13.062Z,2.50
2022-08-20T04:49:39.475Z,2.40
2022-08-20T04:52:05.857Z,3.37
2022-08-20T04:54:32.239Z,2.33
2022-08-20T04:56:58.625Z,2.83
2022-08-20T04:59:25.013Z,2.73
2022-08-20T05:01:51.404Z,2.53
2022-08-20T05:04:17.791Z,3.07
2022-08-20T05:06:44.196Z,2.40
2022-08-20T05:09:10.587Z,2.50
2022-08-20T05:11:37.178Z,2.70
2022-08-20T05:14:03.360Z,2.90
2022-08-20T05:16:29.830Z,2.90
2022-08-20T05:18:56.558Z,2.60
2022-08-20T05:21:23.002Z,2.63
2022-08-20T05:23:49.656Z,2.83
2022-08-20T05:26:16.026Z,2.80
2022-08-20T05:28:54.459Z,2.70
2022-08-20T05:31:08.556Z,2.90
2022-08-20T05:33:34.944Z,2.70
2022-08-20T05:36:01.321Z,2.40
2022-08-20T05:38:27.715Z,2.93
2022-08-20T05:40:54.092Z,2.77
2022-08-20T05:43:20.477Z,2.80
2022-08-20T05:45:46.870Z,2.63
2022-08-20T05:48:13.265Z,2.80
2022-08-20T05:50:39.652Z,2.70
2022-08-20T05:53:06.042Z,2.87
2022-08-20T05:55:32.422Z,2.70
2022-08-20T05:57:58.813Z,3.00
2022-08-20T06:00:25.194Z,3.00
2022-08-20T06:02:51.579Z,2.97
2022-08-20T06:05:17.988Z,2.60
2022-08-20T06:07:44.374Z,3.07
2022-08-20T06:10:10.760Z,3.07
2022-08-20T06:12:37.146Z,2.93
2022-08-20T06:15:03.534Z,2.80
2022-08-20T06:17:36.401Z,2.83
2022-08-20T06:19:56.379Z,2.40
2022-08-20T06:22:26.275Z,3.20
2022-08-20T06:24:49.247Z,3.13
2022-08-20T06:27:15.651Z,2.87
2022-08-20T06:29:42.021Z,2.90
2022-08-20T06:32:08.447Z,2.87
2022-08-20T06:34:34.830Z,2.93
2022-08-20T06:37:01.235Z,3.00
2022-08-20T06:39:27.625Z,3.13
2022-08-20T06:41:54.008Z,2.90
2022-08-20T06:44:20.403Z,3.07
2022-08-20T06:46:46.785Z,3.10
2022-08-20T06:49:13.210Z,3.10
2022-08-20T06:51:40.084Z,2.60
2022-08-20T06:54:05.985Z,3.30
2022-08-20T06:56:32.370Z,3.23
2022-08-20T06:58:58.756Z,2.83
2022-08-20T07:01:25.197Z,3.10
2022-08-20T07:03:55.495Z,3.10
2022-08-20T07:06:17.921Z,3.17
2022-08-20T07:08:44.309Z,2.73
2022-08-20T07:11:10.685Z,3.23
2022-08-20T07:13:37.071Z,3.30
2022-08-20T07:16:03.449Z,3.20
2022-08-20T07:18:29.834Z,3.20
2022-08-20T07:20:56.251Z,2.87
2022-08-20T07:23:22.659Z,3.03
2022-08-20T07:25:49.167Z,3.20
2022-08-20T07:28:15.558Z,2.90
2022-08-20T07:30:56.064Z,3.17
2022-08-20T07:33:08.334Z,3.13
2022-08-20T07:35:34.793Z,3.00
2022-08-20T07:38:01.186Z,3.47
2022-08-20T07:40:27.650Z,3.20
2022-08-20T07:42:53.947Z,3.07
2022-08-20T07:45:20.327Z,2.80
2022-08-20T07:47:46.718Z,3.03
2022-08-20T07:50:15.386Z,3.20
2022-08-20T07:52:41.787Z,3.13
2022-08-20T07:55:08.178Z,3.00
2022-08-20T07:57:34.567Z,3.43
2022-08-20T08:00:00.952Z,3.33
2022-08-20T08:02:27.347Z,2.90
2022-08-20T08:04:53.733Z,3.10
2022-08-20T08:07:20.118Z,3.13
2022-08-20T08:09:46.500Z,3.00
2022-08-20T08:12:12.887Z,3.20
2022-08-20T08:14:39.281Z,3.13
2022-08-20T08:17:05.661Z,3.20
2022-08-20T08:19:32.046Z,3.10
2022-08-20T08:21:58.434Z,3.40
2022-08-20T08:24:28.326Z,3.00
2022-08-20T08:26:51.204Z,3.03
2022-08-20T08:29:17.593Z,3.20
2022-08-20T08:31:44.015Z,3.20
2022-08-20T08:34:10.457Z,3.67
2022-08-20T08:36:36.840Z,3.37
2022-08-20T08:39:03.220Z,2.70
2022-08-20T08:41:29.604Z,3.70
2022-08-20T08:43:55.988Z,3.83
2022-08-20T08:46:22.372Z,3.40
2022-08-20T08:48:48.755Z,3.60
2022-08-20T08:51:15.259Z,3.63
2022-08-20T08:53:41.640Z,3.57
2022-08-20T08:56:08.058Z,3.57
2022-08-20T08:58:34.449Z,3.47
2022-08-20T09:01:02.094Z,3.23
2022-08-20T09:03:27.213Z,3.23
2022-08-20T09:05:53.602Z,3.33
2022-08-20T09:08:19.989Z,3.47
2022-08-20T09:10:46.376Z,3.83
2022-08-20T09:13:12.768Z,3.70
2022-08-20T09:15:40.470Z,3.70
2022-08-20T09:18:05.545Z,3.57
2022-08-20T09:20:31.944Z,3.33
2022-08-20T09:22:58.469Z,3.70
2022-08-20T09:25:24.750Z,3.50
2022-08-20T09:27:51.137Z,3.23
2022-08-20T09:30:17.980Z,3.60
2022-08-20T09:32:43.921Z,3.97
2022-08-20T09:35:10.322Z,3.17
2022-08-20T09:37:37.867Z,3.40
2022-08-20T09:40:03.141Z,3.33
2022-08-20T09:42:29.488Z,3.90
2022-08-20T09:44:55.874Z,3.73
2022-08-20T09:47:22.266Z,3.70
2022-08-20T09:49:48.655Z,3.40
2022-08-20T09:52:15.037Z,3.70
2022-08-20T09:54:46.263Z,3.40
2022-08-20T09:57:07.828Z,3.50
2022-08-20T09:59:34.226Z,3.70
2022-08-20T10:02:00.684Z,3.60
2022-08-20T10:04:27.027Z,4.27
2022-08-20T10:06:53.409Z,4.60
2022-08-20T10:09:19.795Z,3.47
2022-08-20T10:11:48.388Z,3.63
2022-08-20T10:14:14.786Z,3.93
2022-08-20T10:16:41.167Z,3.80
2022-08-20T10:19:07.555Z,3.47
2022-08-20T10:21:38.459Z,3.57
2022-08-20T10:24:00.361Z,3.37
2022-08-20T10:26:26.744Z,3.47
2022-08-20T10:28:53.134Z,4.03
2022-08-20T10:31:21.787Z,3.73
2022-08-20T10:33:48.194Z,3.70
2022-08-20T10:36:14.573Z,3.50
2022-08-20T10:38:40.959Z,3.53
2022-08-20T10:41:07.362Z,3.70
2022-08-20T10:43:33.856Z,3.80
2022-08-20T10:46:00.240Z,3.90
2022-08-20T10:48:26.632Z,3.40
2022-08-20T10:50:53.089Z,3.70
2022-08-20T10:53:19.586Z,3.37
2022-08-20T10:55:45.983Z,3.53
2022-08-20T10:58:12.372Z,3.60
2022-08-20T11:00:38.756Z,3.70
2022-08-20T11:03:05.162Z,3.67
2022-08-20T11:05:31.581Z,3.40
2022-08-20T11:07:57.965Z,4.00
2022-08-20T11:10:24.349Z,3.87
2022-08-20T11:12:50.751Z,3.73
2022-08-20T11:15:17.130Z,3.50
2022-08-20T11:17:43.617Z,3.60
2022-08-20T11:20:10.043Z,3.23
2022-08-20T11:22:38.593Z,3.93
2022-08-20T11:25:04.986Z,3.60
2022-08-20T11:27:31.367Z,3.90
2022-08-20T11:29:57.761Z,3.60
2022-08-20T11:32:24.166Z,3.43
2022-08-20T11:34:50.557Z,3.70
2022-08-20T11:37:16.947Z,3.53
2022-08-20T11:39:43.409Z,3.83
2022-08-20T11:42:09.729Z,3.60
2022-08-20T11:44:36.108Z,3.77
2022-08-20T11:47:02.495Z,4.07
2022-08-20T11:49:28.884Z,3.60
2022-08-20T11:51:55.282Z,3.80
2022-08-20T11:54:21.725Z,3.40
2022-08-20T11:56:48.107Z,3.70
2022-08-20T11:59:14.550Z,3.90
2022-08-20T12:01:41.447Z,3.80
2022-08-20T12:04:07.517Z,3.60
2022-08-20T12:06:34.023Z,3.60
2022-08-20T12:09:00.410Z,3.23
2022-08-20T12:11:26.795Z,3.43
2022-08-20T12:13:53.173Z,3.33
2022-08-20T12:16:19.564Z,3.40
2022-08-20T12:18:46.008Z,3.90
2022-08-20T12:21:12.394Z,3.67
2022-08-20T12:23:38.777Z,3.50
2022-08-20T12:26:05.195Z,3.40
2022-08-20T12:28:31.624Z,3.80
2022-08-20T12:30:58.012Z,3.73
2022-08-20T12:33:24.398Z,3.53
2022-08-20T12:35:50.806Z,3.60
2022-08-20T12:38:17.189Z,3.40
2022-08-20T12:40:43.580Z,3.80
2022-08-20T12:43:09.964Z,3.67
2022-08-20T12:45:36.348Z,3.60
2022-08-20T12:48:02.878Z,4.07
2022-08-20T12:50:31.668Z,3.63
2022-08-20T12:52:55.893Z,3.53
2022-08-20T12:55:22.177Z,4.27
2022-08-20T12:57:48.567Z,3.80
2022-08-20T13:00:14.961Z,4.03
2022-08-20T13:02:41.347Z,4.00
2022-08-20T13:05:07.734Z,3.60
2022-08-20T13:07:34.121Z,4.07
2022-08-20T13:10:00.574Z,3.73
2022-08-20T13:12:26.970Z,3.70
2022-08-20T13:14:53.396Z,4.00
2022-08-20T13:17:19.776Z,3.67
2022-08-20T13:19:46.175Z,3.77
2022-08-20T13:22:12.557Z,3.60
2022-08-20T13:24:38.942Z,4.30
2022-08-20T13:27:05.331Z,3.97
2022-08-20T13:29:31.734Z,3.73
2022-08-20T13:31:58.267Z,3.87
2022-08-20T13:34:24.676Z,3.70
2022-08-20T13:36:51.061Z,4.07
2022-08-20T13:39:17.450Z,4.07
2022-08-20T13:41:43.828Z,3.53
2022-08-20T13:44:10.211Z,3.63
2022-08-20T13:46:36.766Z,3.40
2022-08-20T13:49:03.150Z,3.97
2022-08-20T13:51:30.461Z,3.70
2022-08-20T13:53:55.940Z,3.50
2022-08-20T13:56:22.328Z,3.87
2022-08-20T13:58:48.763Z,3.93
2022-08-20T14:01:15.206Z,3.83
2022-08-20T14:03:42.679Z,3.90
2022-08-20T14:06:07.926Z,4.10
2022-08-20T14:08:34.311Z,3.70
2022-08-20T14:11:00.721Z,4.07
2022-08-20T14:13:27.109Z,4.00
2022-08-20T14:15:53.514Z,3.83
2022-08-20T14:18:19.895Z,4.10
2022-08-20T14:20:46.277Z,4.13
2022-08-20T14:23:12.670Z,4.03
2022-08-20T14:25:39.050Z,3.53
2022-08-20T14:28:05.440Z,4.53
2022-08-20T14:30:31.824Z,3.73
2022-08-20T14:32:58.335Z,4.20
2022-08-20T14:35:24.594Z,3.40
2022-08-20T14:37:50.983Z,3.57
2022-08-20T14:40:17.397Z,3.70
2022-08-20T14:42:43.815Z,4.13
2022-08-20T14:45:10.198Z,4.30
2022-08-20T14:47:36.591Z,4.40
2022-08-20T14:50:03.018Z,4.37
2022-08-20T14:52:29.450Z,3.80
2022-08-20T14:54:55.834Z,3.83
2022-08-20T14:57:22.218Z,4.30
2022-08-20T14:59:48.596Z,3.70
2022-08-20T15:02:15.077Z,4.03
2022-08-20T15:04:42.412Z,3.70
2022-08-20T15:07:08.144Z,4.23
2022-08-20T15:09:34.532Z,3.87
2022-08-20T15:12:00.917Z,4.10
2022-08-20T15:14:27.301Z,4.17
2022-08-20T15:16:53.690Z,3.73
2022-08-20T15:19:20.075Z,4.43
2022-08-20T15:21:46.467Z,3.53
2022-08-20T15:24:19.031Z,3.73
2022-08-20T15:26:39.235Z,3.70
2022-08-20T15:29:05.614Z,4.30
2022-08-20T15:31:34.391Z,4.37
2022-08-20T15:34:00.863Z,3.70
2022-08-20T15:36:27.259Z,3.83
2022-08-20T15:38:53.645Z,4.03
2022-08-20T15:41:20.126Z,3.70
2022-08-20T15:43:46.495Z,3.83
2022-08-20T15:46:12.896Z,4.00
2022-08-20T15:48:39.297Z,3.90
2022-08-20T15:51:05.693Z,3.97
2022-08-20T15:53:32.099Z,4.10
2022-08-20T15:55:58.483Z,3.67
2022-08-20T15:58:24.869Z,4.33
2022-08-20T16:00:51.273Z,4.17
2022-08-20T16:03:17.640Z,3.97
2022-08-20T16:05:44.034Z,4.07
2022-08-20T16:08:10.421Z,3.80
2022-08-20T16:10:36.860Z,3.70
2022-08-20T16:13:03.281Z,3.60
2022-08-20T16:15:29.659Z,4.23
2022-08-20T16:17:56.120Z,3.93
2022-08-20T16:20:22.504Z,3.83
2022-08-20T16:22:48.886Z,4.80
2022-08-20T16:25:15.273Z,4.50
2022-08-20T16:27:42.882Z,3.70
2022-08-20T16:30:08.038Z,3.37
2022-08-20T16:32:34.441Z,3.97
2022-08-20T16:35:00.840Z,3.87
2022-08-20T16:37:27.275Z,3.90
2022-08-20T16:39:53.705Z,4.43
2022-08-20T16:42:20.043Z,3.77
2022-08-20T16:44:46.430Z,3.73
2022-08-20T16:47:13.995Z,4.20
2022-08-20T16:49:39.236Z,4.03
2022-08-20T16:52:05.630Z,3.80
2022-08-20T16:54:32.033Z,3.83
2022-08-20T16:56:58.412Z,3.77
2022-08-20T16:59:26.770Z,3.77
2022-08-20T17:01:51.189Z,3.80
2022-08-20T17:04:17.575Z,4.20
2022-08-20T17:06:43.962Z,3.80
2022-08-20T17:09:10.455Z,3.97
2022-08-20T17:11:36.741Z,4.27
2022-08-20T17:14:03.119Z,3.97
2022-08-20T17:16:29.498Z,4.37
2022-08-20T17:18:55.891Z,3.63
2022-08-20T17:21:22.290Z,4.07
2022-08-20T17:23:55.940Z,4.27
2022-08-20T17:26:15.060Z,3.63
2022-08-20T17:28:41.446Z,4.30
2022-08-20T17:31:07.828Z,3.53
2022-08-20T17:33:34.217Z,3.87
2022-08-20T17:36:00.608Z,4.00
2022-08-20T17:38:26.981Z,3.60
2022-08-20T17:40:53.371Z,3.63
2022-08-20T17:43:19.756Z,3.97
2022-08-20T17:45:46.142Z,3.70
2022-08-20T17:48:12.527Z,4.10
2022-08-20T17:50:38.917Z,3.70
2022-08-20T17:53:05.310Z,4.20
2022-08-20T17:55:31.708Z,4.33
2022-08-20T17:57:58.084Z,4.20
2022-08-20T18:00:24.483Z,3.43
2022-08-20T18:02:50.933Z,3.93
2022-08-20T18:05:17.251Z,3.90
2022-08-20T18:07:46.409Z,3.83
2022-08-20T18:10:12.790Z,3.70
2022-08-20T18:12:39.200Z,4.00
2022-08-20T18:15:05.591Z,3.60
2022-08-20T18:17:31.983Z,4.20
2022-08-20T18:19:58.367Z,3.70
2022-08-20T18:22:24.745Z,3.80
2022-08-20T18:24:51.208Z,3.60
2022-08-20T18:27:17.644Z,3.67
2022-08-20T18:29:44.176Z,3.83
2022-08-20T18:32:10.553Z,4.00
2022-08-20T18:34:37.036Z,4.00
2022-08-20T18:37:03.421Z,4.37
2022-08-20T18:39:29.807Z,4.27
2022-08-20T18:41:56.198Z,3.93
2022-08-20T18:44:22.626Z,3.90
2022-08-20T18:46:49.002Z,3.70
2022-08-20T18:49:15.396Z,4.17
2022-08-20T18:51:41.782Z,3.73
2022-08-20T18:54:08.200Z,4.00
2022-08-20T18:56:34.591Z,4.00
2022-08-20T18:59:01.006Z,3.90
2022-08-20T19:01:27.438Z,3.80
2022-08-20T19:03:53.778Z,4.17
2022-08-20T19:06:20.160Z,3.63
2022-08-20T19:08:46.580Z,4.07
2022-08-20T19:11:13.023Z,3.40
2022-08-20T19:13:39.426Z,4.03
2022-08-20T19:16:05.891Z,4.13
2022-08-20T19:18:32.274Z,3.73
2022-08-20T19:21:00.603Z,3.40
2022-08-20T19:23:25.091Z,3.90
2022-08-20T19:25:51.477Z,3.80
2022-08-20T19:28:17.872Z,3.80
2022-08-20T19:30:44.272Z,3.53
2022-08-20T19:33:10.657Z,3.50
2022-08-20T19:35:37.153Z,4.10
2022-08-20T19:38:03.588Z,3.20
2022-08-20T19:40:29.921Z,3.93
2022-08-20T19:42:56.537Z,3.50
2022-08-20T19:45:22.722Z,3.43
2022-08-20T19:47:49.116Z,3.37
2022-08-20T19:50:15.524Z,3.40
2022-08-20T19:52:41.903Z,4.00
2022-08-20T19:55:08.289Z,3.27
2022-08-20T19:57:34.747Z,3.70
2022-08-20T20:00:01.137Z,3.83
2022-08-20T20:02:27.522Z,3.67
2022-08-20T20:04:54.891Z,3.67
2022-08-20T20:07:20.300Z,3.53
2022-08-20T20:09:46.683Z,3.57
2022-08-20T20:12:21.478Z,3.77
2022-08-20T20:14:39.485Z,3.67
2022-08-20T20:17:05.873Z,3.63
2022-08-20T20:19:32.252Z,3.43
2022-08-20T20:21:58.636Z,3.40
2022-08-20T20:24:25.013Z,3.40
2022-08-20T20:26:51.549Z,3.03
2022-08-20T20:29:17.954Z,3.50
2022-08-20T20:31:44.361Z,3.87
2022-08-20T20:34:10.741Z,3.83
2022-08-20T20:36:37.134Z,3.93
2022-08-20T20:39:03.510Z,3.37
2022-08-20T20:41:29.899Z,3.47
2022-08-20T20:43:56.276Z,3.67
2022-08-20T20:46:22.801Z,3.60
2022-08-20T20:48:49.189Z,3.63
2022-08-20T20:51:15.668Z,3.27
2022-08-20T20:53:49.512Z,3.70
2022-08-20T20:56:08.432Z,3.77
2022-08-20T20:58:34.809Z,3.50
2022-08-20T21:01:01.222Z,3.60
2022-08-20T21:03:27.581Z,3.20
2022-08-20T21:05:53.974Z,3.60
2022-08-20T21:08:20.359Z,2.90
2022-08-20T21:10:46.751Z,3.30
2022-08-20T21:13:13.142Z,3.33
2022-08-20T21:15:39.522Z,3.07
2022-08-20T21:18:05.904Z,3.67
2022-08-20T21:20:32.326Z,3.70
2022-08-20T21:22:58.896Z,3.40
2022-08-20T21:25:25.124Z,3.30
2022-08-20T21:27:54.005Z,3.80
2022-08-20T21:30:17.927Z,3.40
2022-08-20T21:32:44.308Z,3.20
2022-08-20T21:35:10.708Z,3.20
2022-08-20T21:37:37.086Z,2.97
2022-08-20T21:40:03.517Z,3.20
2022-08-20T21:42:29.925Z,3.63
2022-08-20T21:44:56.384Z,3.43
2022-08-20T21:47:22.764Z,2.90
2022-08-20T21:49:49.154Z,3.20
2022-08-20T21:52:15.536Z,3.13
2022-08-20T21:54:41.919Z,3.40
2022-08-20T21:57:08.313Z,3.03
2022-08-20T21:59:34.700Z,2.83
2022-08-20T22:02:01.101Z,3.20
2022-08-20T22:04:34.792Z,2.93
2022-08-20T22:06:56.008Z,2.73
2022-08-20T22:09:22.423Z,2.97
2022-08-20T22:11:53.853Z,3.40
2022-08-20T22:14:15.189Z,2.97
2022-08-20T22:16:42.353Z,3.13
2022-08-20T22:19:10.683Z,3.20
2022-08-20T22:21:34.360Z,3.30
2022-08-20T22:24:00.754Z,3.07
2022-08-20T22:26:27.271Z,3.00
2022-08-20T22:28:53.555Z,3.20
2022-08-20T22:31:19.947Z,3.10
2022-08-20T22:33:46.327Z,3.30
2022-08-20T22:36:12.713Z,2.90
2022-08-20T22:38:39.113Z,3.10
2022-08-20T22:41:09.556Z,2.90
2022-08-20T22:43:31.905Z,3.07
2022-08-20T22:45:58.282Z,2.70
2022-08-20T22:48:24.678Z,3.27
2022-08-20T22:50:51.060Z,2.90
2022-08-20T22:53:17.464Z,2.90
2022-08-20T22:55:43.844Z,2.80
2022-08-20T22:58:10.248Z,3.00
2022-08-20T23:00:36.610Z,3.07
2022-08-20T23:03:02.992Z,2.97
2022-08-20T23:05:29.380Z,2.83
2022-08-20T23:07:55.771Z,2.80
2022-08-20T23:10:22.153Z,3.23
2022-08-20T23:12:48.534Z,3.00
2022-08-20T23:15:14.941Z,3.27
2022-08-20T23:17:41.329Z,3.07
2022-08-20T23:20:07.706Z,2.93
2022-08-20T23:22:34.096Z,3.10
2022-08-20T23:25:00.877Z,2.70
2022-08-20T23:27:26.952Z,3.40
2022-08-20T23:29:53.332Z,2.90
2022-08-20T23:32:19.724Z,2.90
2022-08-20T23:34:46.115Z,3.00
2022-08-20T23:37:12.631Z,2.80
2022-08-20T23:39:39.049Z,2.70
2022-08-20T23:42:05.403Z,2.90
2022-08-20T23:44:31.926Z,2.67
2022-08-20T23:46:58.330Z,2.97
2022-08-20T23:49:24.702Z,3.10
2022-08-20T23:51:51.090Z,2.77
2022-08-20T23:54:17.465Z,2.63
2022-08-20T23:56:43.900Z,2.60
2022-08-20T23:59:10.288Z,2.93
